Latest Weather Observations for Lucas Heights

IDN60901

Issued at 5:21 pm EST Wednesday 1 June 2016 (issued every 10 minutes, with the page automatically refreshed every 10 minutes)

About weather observations | Map of Sydney area stations | Latest observations for Sydney area | Other Formats
Station Details ID: 066023 Name: LUCAS HEIGHTS AWS Lat: -34.05 Lon: 150.98 Height: 140.0 m
Data from the previous 72 hours. | See also: Recent months for locations in New South Wales
Date/Time
EST
Tmp

°C
App
Tmp
°C
Dew
Point
°C
Rel
Hum
%
Delta-T

°C
Wind Press
QNH
hPa
Press
MSL
hPa
Rain
since
9 am
mm
Dir
 
Spd
km/h
Gust
km/h
Spd
kts
Gust
kts
01/05:00pm 13.3 12.2 11.9 91 0.8 S 9 13 5 7 1026.9 - 0.4
01/04:45pm 13.4 11.9 11.9 91 0.8 SSE 11 13 6 7 1026.7 - 0.4
01/04:30pm 13.6 12.5 12.1 91 0.8 SSE 9 13 5 7 1026.6 - 0.4
01/04:15pm 13.8 13.2 12.2 90 0.9 SSE 7 11 4 6 1026.6 - 0.4
01/04:00pm 13.8 12.8 12.3 91 0.8 S 9 11 5 6 1026.6 - 0.4
01/03:45pm 13.8 12.8 12.3 91 0.8 S 9 11 5 6 1026.6 - 0.4
01/03:30pm 13.9 12.5 12.3 90 0.9 S 11 13 6 7 1026.7 - 0.4
01/03:15pm 14.0 13.0 12.4 90 0.9 S 9 13 5 7 1026.7 - 0.4
01/03:00pm 14.0 13.0 12.4 90 0.9 S 9 13 5 7 1026.7 - 0.4
01/02:45pm 14.1 13.2 12.5 90 0.9 S 9 17 5 9 1026.8 - 0.4
01/02:30pm 14.1 13.1 12.4 89 0.9 S 9 13 5 7 1026.8 - 0.4
01/02:15pm 14.1 12.8 12.4 89 0.9 S 11 15 6 8 1026.9 - 0.4
01/02:00pm 14.2 12.9 12.6 90 0.9 SSE 11 15 6 8 1026.9 - 0.4
01/01:45pm 14.4 13.6 12.9 91 0.8 SE 9 15 5 8 1027.0 - 0.4
01/01:30pm 14.4 14.0 13.1 92 0.7 SE 7 11 4 6 1027.1 - 0.4
01/01:15pm 14.4 14.1 13.4 94 0.6 SSE 7 11 4 6 1027.2 - 0.4
01/01:00pm 14.6 14.5 13.8 95 0.5 SSE 7 13 4 7 1027.4 - 0.4
01/12:45pm 14.6 14.7 14.0 96 0.3 S 6 11 3 6 1027.5 - 0.4
01/12:30pm 14.4 14.4 14.1 98 0.2 S 7 11 4 6 1027.7 - 0.4
01/12:15pm 14.2 14.1 14.0 99 0.1 S 7 11 4 6 1027.9 - 0.4
01/12:00pm 13.9 13.7 13.7 99 0.1 S 7 13 4 7 1028.2 - 0.4
01/11:45am 13.6 13.3 13.4 99 0.1 S 7 11 4 6 1028.5 - 0.4
01/11:30am 13.4 12.7 13.3 99 0.1 S 9 11 5 6 1028.6 - 0.4
01/11:15am 13.3 12.6 13.2 99 0.1 S 9 17 5 9 1028.8 - 0.4
01/11:00am 13.3 11.8 13.2 99 0.1 S 13 17 7 9 1028.9 - 0.4
01/10:45am 13.2 12.1 13.1 99 0.1 S 11 15 6 8 1029.0 - 0.4
01/10:30am 13.3 12.2 13.2 99 0.1 S 11 17 6 9 1029.2 - 0.4
01/10:15am 13.2 12.1 13.1 99 0.1 SSW 11 13 6 7 1029.2 - 0.4
01/10:00am 12.7 11.4 12.6 99 0.1 S 11 15 6 8 1029.4 - 0.4
01/09:45am 12.4 11.0 12.3 99 0.1 S 11 15 6 8 1029.5 - 0.4
01/09:30am 12.3 11.3 12.2 99 0.1 S 9 13 5 7 1029.5 - 0.4
01/09:15am 12.1 10.6 12.0 99 0.1 S 11 17 6 9 1029.4 - 0.2
01/09:00am 12.2 10.0 12.1 99 0.1 S 15 19 8 10 1029.2 - 12.2
01/08:45am 12.2 10.4 12.1 99 0.1 S 13 17 7 9 1029.2 - 12.2
01/08:30am 12.0 10.1 11.9 99 0.1 S 13 17 7 9 1029.1 - 12.1
01/08:15am 12.0 10.5 11.9 99 0.1 S 11 17 6 9 1029.0 - 11.5
01/08:00am 12.0 10.5 11.9 99 0.1 S 11 13 6 7 1028.8 - 11.3
01/07:45am 12.0 10.1 11.9 99 0.1 SSW 13 17 7 9 1028.6 - 11.3
01/07:30am 11.8 9.5 11.7 99 0.1 SSW 15 19 8 10 1028.5 - 11.2
01/07:15am 11.6 9.2 11.5 99 0.1 S 15 19 8 10 1028.6 - 10.8
01/07:00am 11.5 8.7 11.4 99 0.1 S 17 19 9 10 1028.6 - 9.7
01/06:45am 11.5 8.7 11.4 99 0.1 S 17 20 9 11 1028.5 - 9.7
01/06:30am 11.4 9.0 11.3 99 0.1 S 15 22 8 12 1028.4 - 9.4
01/06:15am 11.4 8.6 11.3 99 0.1 S 17 22 9 12 1028.1 - 9.2
01/06:00am 11.3 9.2 11.2 99 0.1 S 13 17 7 9 1028.0 - 9.2
01/05:45am 11.3 10.4 11.2 99 0.1 SSE 7 11 4 6 1028.0 - 9.0
01/05:30am 11.1 9.7 11.0 99 0.1 SSE 9 15 5 8 1028.0 - 8.5
01/05:15am 11.1 9.0 11.0 99 0.1 SSW 13 19 7 10 1027.8 - 8.5
01/05:00am 11.0 8.5 10.9 99 0.1 S 15 22 8 12 1027.7 - 8.5
01/04:45am 10.9 8.3 10.8 99 0.1 SSW 15 22 8 12 1027.6 - 8.3
01/04:30am 10.8 8.6 10.7 99 0.1 SSW 13 17 7 9 1027.6 - 8.3
01/04:15am 10.9 8.7 10.8 99 0.1 SSW 13 17 7 9 1027.6 - 8.3
01/04:00am 10.9 9.5 10.8 99 0.1 SSW 9 13 5 7 1027.6 - 8.3
01/03:45am 10.9 9.5 10.8 99 0.1 SSW 9 11 5 6 1027.5 - 8.3
01/03:30am 10.8 9.3 10.7 99 0.1 SSW 9 13 5 7 1027.6 - 8.3
01/03:15am 10.7 9.2 10.6 99 0.1 SSW 9 11 5 6 1027.8 - 8.3
01/03:00am 10.6 8.7 10.5 99 0.1 SSW 11 13 6 7 1027.9 - 8.3
01/02:45am 10.3 8.3 10.2 99 0.1 S 11 13 6 7 1027.9 - 8.3
01/02:30am 10.3 9.1 10.2 99 0.1 S 7 11 4 6 1027.9 - 8.3
01/02:15am 10.4 8.8 10.3 99 0.1 S 9 13 5 7 1028.1 - 8.3
01/02:00am 10.4 8.4 10.3 99 0.1 S 11 13 6 7 1028.2 - 8.3
01/01:45am 10.5 8.6 10.4 99 0.1 S 11 13 6 7 1028.2 - 8.3
01/01:30am 10.7 8.8 10.6 99 0.1 S 11 13 6 7 1028.3 - 8.3
01/01:15am 11.0 8.8 10.9 99 0.1 S 13 13 7 7 1028.3 - 8.3
01/01:00am 11.0 9.2 10.9 99 0.1 SSW 11 13 6 7 1028.5 - 8.3
01/12:45am 11.2 9.5 11.1 99 0.1 S 11 13 6 7 1028.5 - 8.3
01/12:30am 11.1 9.3 11.0 99 0.1 S 11 13 6 7 1028.6 - 8.3
01/12:15am 10.9 9.5 10.8 99 0.1 SSW 9 11 5 6 1028.6 - 8.3
01/12:00am 11.2 10.2 11.1 99 0.1 SSW 7 11 4 6 1028.8 - 8.3
 
Date/Time
EST
Tmp

°C
App
Tmp
°C
Dew
Point
°C
Rel
Hum
%
Delta-T

°C
Wind Press
QNH
hPa
Press
MSL
hPa
Rain
since
9 am
mm
Dir
 
Spd
km/h
Gust
km/h
Spd
kts
Gust
kts
31/11:45pm 11.4 10.5 11.3 99 0.1 SSW 7 9 4 5 1028.9 - 8.3
31/11:30pm 11.5 10.6 11.4 99 0.1 SW 7 11 4 6 1029.0 - 8.3
31/11:15pm 11.6 10.7 11.5 99 0.1 WSW 7 11 4 6 1029.1 - 8.3
31/11:00pm 11.6 10.7 11.5 99 0.1 SW 7 11 4 6 1029.3 - 8.3
31/10:45pm 11.6 11.3 11.5 99 0.1 WSW 4 7 2 4 1029.3 - 8.1
31/10:30pm 11.7 11.1 11.6 99 0.1 WSW 6 7 3 4 1029.3 - 8.1
31/10:15pm 11.7 11.1 11.6 99 0.1 WSW 6 9 3 5 1029.3 - 8.1
31/10:00pm 11.7 11.8 11.6 99 0.1 WSW 2 6 1 3 1029.4 - 8.1
31/09:45pm 11.7 10.8 11.5 99 0.1 S 7 11 4 6 1029.4 - 8.1
31/09:30pm 11.7 10.1 11.5 99 0.1 SSW 11 15 6 8 1029.4 - 8.1
31/09:15pm 11.8 10.2 11.6 99 0.1 S 11 17 6 9 1029.3 - 8.1
31/09:00pm 11.8 11.2 11.6 99 0.1 S 6 7 3 4 1029.2 - 8.1
31/08:45pm 11.9 11.3 11.7 99 0.1 S 6 9 3 5 1029.2 - 8.1
31/08:30pm 12.0 11.8 11.8 99 0.1 S 4 9 2 5 1029.2 - 8.1
31/08:15pm 12.1 11.9 11.8 98 0.2 SSE 4 7 2 4 1029.3 - 8.1
31/08:00pm 12.1 11.3 11.8 98 0.2 SSE 7 15 4 8 1029.4 - 7.0
31/07:45pm 12.0 10.4 11.7 98 0.2 SSE 11 17 6 9 1029.3 - 4.7
31/07:30pm 12.0 10.8 11.7 98 0.2 S 9 13 5 7 1029.1 - 3.1
31/07:15pm 12.1 10.9 11.7 97 0.2 SSE 9 13 5 7 1028.9 - 2.9
31/07:00pm 12.1 10.9 11.7 97 0.2 SSE 9 11 5 6 1028.9 - 2.9
31/06:45pm 12.2 11.1 11.8 97 0.2 SSE 9 11 5 6 1028.8 - 2.9
31/06:30pm 12.2 11.0 11.7 97 0.3 SSE 9 13 5 7 1028.7 - 2.7
31/06:15pm 12.3 11.1 11.7 96 0.3 SSE 9 11 5 6 1028.6 - 2.7
31/06:00pm 12.4 10.9 11.8 96 0.3 SE 11 17 6 9 1028.5 - 2.7
31/05:45pm 12.5 10.2 11.9 96 0.3 SE 15 20 8 11 1028.4 - 2.7
31/05:30pm 12.7 11.2 12.0 95 0.4 SSE 11 19 6 10 1028.3 - 0.0
31/05:15pm 12.8 11.0 12.0 95 0.4 S 13 24 7 13 1028.1 - 0.0
31/05:00pm 12.9 11.1 12.1 95 0.4 SSE 13 22 7 12 1028.0 - 0.0
31/04:45pm 13.0 11.2 12.1 94 0.5 S 13 19 7 10 1028.0 - 0.0
31/04:30pm 13.2 11.4 12.1 93 0.6 S 13 19 7 10 1028.0 - 0.0
31/04:15pm 13.4 12.0 12.2 92 0.7 SSE 11 15 6 8 1027.9 - 0.0
31/04:00pm 13.5 12.4 12.1 91 0.8 SSE 9 13 5 7 1027.9 - 0.0
31/03:45pm 13.7 12.6 12.0 89 0.9 SE 9 15 5 8 1027.9 - 0.0
31/03:30pm 14.0 12.1 11.9 87 1.1 SE 13 19 7 10 1027.8 - 0.0
31/03:15pm 14.6 12.9 12.4 87 1.2 ESE 13 19 7 10 1027.7 - 0.0
31/03:00pm 14.7 13.4 12.4 86 1.3 ESE 11 17 6 9 1027.7 - 0.0
31/02:45pm 14.7 13.3 12.2 85 1.4 ESE 11 19 6 10 1027.6 - 0.0
31/02:30pm 15.1 13.7 12.3 83 1.5 ESE 11 19 6 10 1027.5 - 0.0
31/02:15pm 15.4 14.6 12.8 84 1.4 E 9 15 5 8 1027.5 - 0.0
31/02:00pm 15.2 14.0 12.8 85 1.3 ESE 11 19 6 10 1027.6 - 0.0
31/01:45pm 14.9 14.4 12.5 85 1.3 SE 7 13 4 7 1027.7 - 0.0
31/01:30pm 14.9 13.9 12.2 84 1.5 SE 9 13 5 7 1027.8 - 0.0
31/01:15pm 15.0 13.7 12.6 85 1.3 SE 11 17 6 9 1027.9 - 0.0
31/01:00pm 14.9 13.8 13.1 89 1.0 SE 11 19 6 10 1028.0 - 0.0
31/12:45pm 14.8 13.2 12.8 88 1.1 SE 13 22 7 12 1028.1 - 0.0
31/12:30pm 15.0 13.0 12.7 86 1.3 SSE 15 22 8 12 1028.2 - 0.0
31/12:15pm 15.1 13.1 12.7 85 1.3 S 15 19 8 10 1028.3 - 0.0
31/12:00pm 15.2 13.1 12.5 84 1.5 S 15 22 8 12 1028.5 - 0.0
31/11:45am 14.8 13.4 12.3 85 1.4 S 11 17 6 9 1028.7 - 0.0
31/11:30am 14.6 12.7 11.8 83 1.5 S 13 19 7 10 1028.9 - 0.0
31/11:15am 15.0 13.3 12.3 84 1.5 S 13 19 7 10 1029.1 - 0.0
31/11:00am 14.8 13.1 12.4 85 1.3 S 13 17 7 9 1029.1 - 0.0
31/10:45am 14.7 13.5 12.8 88 1.1 S 11 17 6 9 1029.4 - 0.0
31/10:30am 14.4 13.5 12.7 89 0.9 S 9 15 5 8 1029.4 - 0.0
31/10:15am 14.4 14.0 13.0 91 0.8 S 7 11 4 6 1029.5 - 0.0
31/10:00am 14.3 13.9 13.0 92 0.7 S 7 11 4 6 1029.4 - 0.0
31/09:45am 14.4 14.1 13.4 94 0.6 S 7 11 4 6 1029.3 - 0.0
31/09:30am 14.3 13.8 13.7 96 0.3 S 9 13 5 7 1029.3 - 0.0
31/09:15am 13.9 13.4 13.7 99 0.1 S 9 13 5 7 1029.3 - 0.0
31/09:00am 13.1 12.3 12.9 99 0.1 S 9 13 5 7 1029.4 - 2.0
31/08:45am 12.3 10.9 12.1 99 0.1 S 11 13 6 7 1029.3 - 2.0
31/08:30am 11.6 10.0 11.4 99 0.1 SSW 11 13 6 7 1029.1 - 2.0
31/08:15am 11.4 9.7 11.1 98 0.2 SSW 11 17 6 9 1029.0 - 1.8
31/08:00am 11.2 9.0 10.8 97 0.2 SSW 13 19 7 10 1028.9 - 1.8
31/07:45am 11.0 8.7 10.6 97 0.2 SSW 13 20 7 11 1028.8 - 1.8
31/07:30am 10.8 8.8 10.3 97 0.3 SSW 11 15 6 8 1028.8 - 1.6
31/07:15am 10.8 8.5 10.3 97 0.3 S 13 19 7 10 1028.8 - 1.4
31/07:00am 10.8 8.1 10.2 96 0.3 S 15 19 8 10 1028.8 - 0.9
31/06:45am 10.5 7.7 10.0 97 0.3 S 15 19 8 10 1028.5 - 0.4
31/06:30am 10.7 8.3 10.2 97 0.3 S 13 17 7 9 1028.2 - 0.0
31/06:15am 10.6 8.6 10.1 97 0.3 S 11 13 6 7 1027.9 - 0.0
31/06:00am 10.4 7.6 10.0 97 0.2 S 15 19 8 10 1027.8 - 0.0
31/05:45am 10.0 7.5 9.6 97 0.2 SSE 13 19 7 10 1027.8 - 0.0
31/05:30am 10.0 7.5 9.6 97 0.2 SSE 13 15 7 8 1027.7 - 0.0
31/05:15am 9.6 6.6 9.2 97 0.2 SSW 15 20 8 11 1027.3 - 0.0
31/05:00am 10.0 6.8 9.8 99 0.1 SSW 17 22 9 12 1027.1 - 0.0
31/04:45am 9.0 5.2 8.9 99 0.0 SSW 19 22 10 12 1027.0 - 0.0
31/04:30am 8.5 4.3 8.4 99 0.0 SSW 20 22 11 12 1027.1 - 0.0
31/04:15am 7.7 3.5 7.5 99 0.1 S 19 22 10 12 1027.2 - 0.0
31/04:00am 7.0 2.4 6.6 97 0.2 S 20 22 11 12 1027.2 - 0.0
31/03:45am 7.4 3.5 7.1 98 0.1 SSW 17 19 9 10 1027.2 - 0.0
31/03:30am 7.5 4.0 7.2 98 0.1 SSW 15 19 8 10 1027.2 - 0.0
31/03:15am 7.2 3.2 6.8 97 0.2 SSW 17 19 9 10 1027.2 - 0.0
31/03:00am 6.9 3.2 6.5 97 0.2 SSW 15 19 8 10 1027.3 - 0.0
31/02:45am 6.9 3.2 6.4 97 0.2 SSW 15 17 8 9 1027.2 - 0.0
31/02:30am 6.9 3.2 6.3 96 0.3 SSW 15 19 8 10 1027.1 - 0.0
31/02:15am 7.5 4.3 6.9 96 0.3 SSW 13 17 7 9 1027.2 - 0.0
31/02:00am 7.3 3.7 6.7 96 0.3 SSW 15 19 8 10 1027.1 - 0.0
31/01:45am 7.2 3.1 6.4 95 0.4 SSW 17 19 9 10 1027.2 - 0.0
31/01:30am 7.3 3.6 6.5 95 0.4 SSW 15 19 8 10 1027.3 - 0.0
31/01:15am 7.5 4.3 6.7 95 0.4 SSW 13 17 7 9 1027.4 - 0.0
31/01:00am 7.4 4.5 6.5 94 0.4 SSW 11 13 6 7 1027.4 - 0.0
31/12:45am 7.5 3.8 6.5 93 0.5 SSW 15 19 8 10 1027.3 - 0.0
31/12:30am 7.1 2.6 5.9 92 0.5 SSW 19 20 10 11 1027.3 - 0.0
31/12:15am 7.4 3.7 6.2 92 0.5 SSW 15 19 8 10 1027.5 - 0.0
31/12:00am 7.5 4.1 6.1 91 0.6 SSW 13 17 7 9 1027.6 - 0.0
 
Date/Time
EST
Tmp

°C
App
Tmp
°C
Dew
Point
°C
Rel
Hum
%
Delta-T

°C
Wind Press
QNH
hPa
Press
MSL
hPa
Rain
since
9 am
mm
Dir
 
Spd
km/h
Gust
km/h
Spd
kts
Gust
kts
30/11:45pm 7.9 4.2 6.4 90 0.7 SSW 15 17 8 9 1027.6 - 0.0
30/11:30pm 7.8 4.1 6.3 90 0.7 SSW 15 17 8 9 1027.6 - 0.0
30/11:15pm 7.7 3.5 5.9 88 0.8 SSW 17 19 9 10 1027.6 - 0.0
30/11:00pm 8.0 4.2 6.0 87 0.9 SSW 15 19 8 10 1027.6 - 0.0
30/10:45pm 8.3 4.5 6.0 85 1.1 SSW 15 19 8 10 1027.5 - 0.0
30/10:30pm 8.5 5.1 5.9 84 1.2 SSW 13 17 7 9 1027.4 - 0.0
30/10:15pm 9.0 5.3 6.1 82 1.3 SSW 15 19 8 10 1027.5 - 0.0
30/10:00pm 9.5 5.4 6.3 80 1.5 SSW 17 19 9 10 1027.4 - 0.0
30/09:45pm 10.1 6.1 6.7 79 1.6 SSW 17 22 9 12 1027.3 - 0.0
30/09:30pm 10.1 6.1 6.6 79 1.7 SSW 17 20 9 11 1027.3 - 0.0
30/09:15pm 10.2 6.1 6.2 76 1.9 SSW 17 20 9 11 1027.1 - 0.0
30/09:00pm 10.5 6.4 6.3 75 2.0 SSW 17 22 9 12 1027.0 - 0.0
30/08:45pm 10.6 6.5 6.4 75 2.0 SSW 17 22 9 12 1027.0 - 0.0
30/08:30pm 10.6 6.3 7.1 79 1.7 S 19 22 10 12 1027.1 - 0.0
30/08:15pm 9.6 5.3 7.2 85 1.1 S 19 22 10 12 1027.1 - 0.0
30/08:00pm 8.5 4.0 6.2 85 1.1 S 19 22 10 12 1027.0 - 0.0
30/07:45pm 8.2 3.6 5.7 84 1.1 S 19 20 10 11 1026.8 - 0.0
30/07:30pm 8.8 4.7 6.1 83 1.2 S 17 19 9 10 1026.7 - 0.0
30/07:15pm 8.9 4.8 6.0 82 1.3 SSW 17 20 9 11 1026.5 - 0.0
30/07:00pm 9.3 4.8 6.0 80 1.5 SSW 19 19 10 10 1026.4 - 0.0
30/06:45pm 9.7 5.2 5.9 77 1.8 S 19 22 10 12 1026.3 - 0.0
30/06:30pm 10.7 6.6 6.2 74 2.1 S 17 19 9 10 1026.3 - 0.0
30/06:15pm 11.2 7.9 6.4 72 2.3 S 13 17 7 9 1026.1 - 0.0
30/06:00pm 11.7 8.4 6.6 71 2.4 S 13 13 7 7 1026.0 - 0.0
30/05:45pm 11.9 9.0 6.5 69 2.6 S 11 13 6 7 1025.8 - 0.0
30/05:30pm 12.4 9.5 6.6 68 2.8 S 11 13 6 7 1025.7 - 0.0
30/05:15pm 12.8 9.9 6.5 65 3.0 S 11 13 6 7 1025.5 - 0.0
30/05:00pm 13.4 10.1 6.4 62 3.4 S 13 17 7 9 1025.3 - 0.0
30/04:45pm 14.0 10.6 6.0 58 3.8 S 13 17 7 9 1025.0 - 0.0
30/04:30pm 14.9 11.4 5.4 53 4.5 SSE 13 17 7 9 1024.8 - 0.0
30/04:15pm 15.4 12.1 4.8 49 5.0 SSE 11 17 6 9 1024.7 - 0.0
30/04:00pm 15.9 12.6 4.3 46 5.4 SSE 11 15 6 8 1024.6 - 0.0
30/03:45pm 16.4 13.4 4.0 43 5.8 SSE 9 15 5 8 1024.5 - 0.0
30/03:30pm 16.6 13.5 3.8 42 6.0 S 9 13 5 7 1024.4 - 0.0
30/03:15pm 16.8 13.6 3.0 39 6.4 SSE 9 13 5 7 1024.3 - 0.0
30/03:00pm 16.8 13.5 2.3 37 6.6 SSE 9 13 5 7 1024.2 - 0.0
30/02:45pm 16.7 13.4 2.2 37 6.6 SSE 9 13 5 7 1024.1 - 0.0
30/02:30pm 16.9 14.0 2.4 37 6.6 SSE 7 13 4 7 1024.0 - 0.0
30/02:15pm 16.9 13.6 2.4 37 6.6 SSE 9 17 5 9 1023.9 - 0.0
30/02:00pm 17.1 14.3 2.9 38 6.5 S 7 17 4 9 1023.9 - 0.0
30/01:45pm 17.0 14.3 2.7 38 6.6 SE 6 11 3 6 1023.9 - 0.0
30/01:30pm 17.0 14.2 3.1 39 6.4 SSE 7 17 4 9 1024.0 - 0.0
30/01:15pm 16.9 14.8 3.7 41 6.2 N 4 7 2 4 1024.0 - 0.0
30/01:00pm 16.8 14.2 4.1 43 6.0 S 7 13 4 7 1024.1 - 0.0
30/12:45pm 16.3 14.2 4.1 44 5.7 ENE 4 11 2 6 1024.1 - 0.0
30/12:30pm 15.6 13.1 3.9 45 5.4 SW 6 9 3 5 1024.3 - 0.0
30/12:15pm 16.4 14.3 3.9 43 5.8 S 4 11 2 6 1024.4 - 0.0
30/12:00pm 16.5 14.6 4.8 46 5.6 S 4 13 2 7 1024.6 - 0.0
30/11:45am 16.3 14.7 6.2 51 4.9 W 4 7 2 4 1024.8 - 0.0
30/11:30am 15.8 13.8 6.1 52 4.7 WNW 6 13 3 7 1025.0 - 0.0
30/11:15am 15.2 13.1 6.0 54 4.5 NW 6 11 3 6 1025.2 - 0.0
30/11:00am 14.5 12.2 5.8 56 4.2 WNW 7 11 4 6 1025.4 - 0.0
30/10:45am 14.0 11.7 5.6 57 4.0 NW 7 11 4 6 1025.5 - 0.0
30/10:30am 14.0 11.7 5.8 57 3.9 W 7 11 4 6 1025.6 - 0.0
30/10:15am 13.3 11.0 5.5 59 3.7 W 7 13 4 7 1025.6 - 0.0
30/10:00am 12.8 10.4 5.4 60 3.5 W 7 11 4 6 1025.6 - 0.0
30/09:45am 12.3 9.9 5.2 62 3.3 W 7 15 4 8 1025.5 - 0.0
30/09:30am 11.9 9.5 5.2 63 3.1 WSW 7 13 4 7 1025.4 - 0.0
30/09:15am 11.3 8.5 5.1 65 2.9 WSW 9 11 5 6 1025.2 - 0.0
30/09:00am 10.3 7.0 4.7 68 2.5 WSW 11 17 6 9 1025.0 - 0.0
30/08:45am 9.6 5.9 4.5 70 2.3 WSW 13 15 7 8 1024.9 - 0.0
30/08:30am 8.8 5.0 4.0 72 2.1 WSW 13 15 7 8 1024.8 - 0.0
30/08:15am 8.4 4.6 3.8 73 2.0 WSW 13 17 7 9 1024.8 - 0.0
30/08:00am 7.8 3.9 3.6 75 1.8 SW 13 17 7 9 1024.6 - 0.0
30/07:45am 7.2 2.9 3.4 77 1.6 SW 15 19 8 10 1024.4 - 0.0
30/07:30am 6.8 2.1 3.1 77 1.6 SW 17 19 9 10 1024.2 - 0.0
30/07:15am 6.6 1.5 3.0 78 1.5 SW 19 24 10 13 1024.0 - 0.0
30/07:00am 6.6 1.3 3.0 78 1.5 SW 20 22 11 12 1023.8 - 0.0
30/06:45am 6.6 1.3 3.0 78 1.5 SW 20 22 11 12 1023.6 - 0.0
30/06:30am 6.5 1.2 2.9 78 1.5 SW 20 24 11 13 1023.4 - 0.0
30/06:15am 6.3 1.1 2.7 78 1.5 SW 19 22 10 12 1023.2 - 0.0
30/06:00am 6.4 1.0 2.7 77 1.5 SW 20 24 11 13 1023.0 - 0.0
30/05:45am 6.3 0.9 2.6 77 1.5 SW 20 24 11 13 1022.8 - 0.0
30/05:30am 6.4 1.0 2.5 76 1.6 SW 20 24 11 13 1022.7 - 0.0
30/05:15am 6.4 1.2 2.5 76 1.6 SW 19 22 10 12 1022.5 - 0.0
30/05:00am 6.4 1.0 2.5 76 1.6 SW 20 24 11 13 1022.2 - 0.0
30/04:45am 6.5 1.1 2.5 75 1.7 SW 20 24 11 13 1022.2 - 0.0
30/04:30am 6.4 1.0 2.3 75 1.7 SW 20 24 11 13 1022.0 - 0.0
30/04:15am 6.4 1.0 2.2 74 1.7 SW 20 24 11 13 1021.8 - 0.0
30/04:00am 6.5 1.1 2.3 74 1.7 SW 20 24 11 13 1021.8 - 0.0
30/03:45am 6.6 1.2 2.3 74 1.8 SW 20 24 11 13 1021.8 - 0.0
30/03:30am 6.6 1.4 2.3 74 1.8 SW 19 22 10 12 1021.7 - 0.0
30/03:15am 6.6 1.4 2.3 74 1.8 SW 19 24 10 13 1021.6 - 0.0
30/03:00am 6.7 1.5 2.3 73 1.8 SW 19 24 10 13 1021.6 - 0.0
30/02:45am 6.7 1.8 2.3 73 1.8 SW 17 26 9 14 1021.6 - 0.0
30/02:30am 6.6 1.3 2.1 73 1.9 SW 19 26 10 14 1021.5 - 0.0
30/02:15am 6.6 1.1 1.9 72 1.9 SW 20 28 11 15 1021.5 - 0.0
30/02:00am 6.9 1.1 2.1 71 2.0 SW 22 28 12 15 1021.6 - 0.0
30/01:45am 7.0 1.5 2.0 70 2.1 SW 20 26 11 14 1021.6 - 0.0
30/01:30am 7.2 1.7 2.0 69 2.1 WSW 20 28 11 15 1021.5 - 0.0
30/01:15am 7.4 2.1 2.0 68 2.2 WSW 19 26 10 14 1021.4 - 0.0
30/01:00am 7.5 2.0 1.9 67 2.3 WSW 20 28 11 15 1021.3 - 0.0
30/12:45am 7.8 1.6 2.0 67 2.4 WSW 24 30 13 16 1021.2 - 0.0
30/12:30am 7.8 2.0 2.1 67 2.4 WSW 22 30 12 16 1021.2 - 0.0
30/12:15am 7.7 1.5 1.9 67 2.4 WSW 24 32 13 17 1021.2 - 0.0
30/12:00am 8.2 2.0 2.1 65 2.5 WSW 24 30 13 16 1021.2 - 0.0
 
Date/Time
EST
Tmp

°C
App
Tmp
°C
Dew
Point
°C
Rel
Hum
%
Delta-T

°C
Wind Press
QNH
hPa
Press
MSL
hPa
Rain
since
9 am
mm
Dir
 
Spd
km/h
Gust
km/h
Spd
kts
Gust
kts
29/11:45pm 8.4 2.6 2.2 65 2.6 WSW 22 28 12 15 1021.2 - 0.0
29/11:30pm 8.6 2.8 2.3 64 2.7 WSW 22 28 12 15 1021.1 - 0.0
29/11:15pm 8.8 3.0 2.3 64 2.7 WSW 22 30 12 16 1021.0 - 0.0
29/11:00pm 8.7 3.3 2.4 64 2.7 WSW 20 28 11 15 1021.0 - 0.0
29/10:45pm 8.7 3.5 2.5 65 2.6 SW 19 26 10 14 1021.0 - 0.0
29/10:30pm 8.9 2.8 2.6 64 2.7 WSW 24 30 13 16 1021.0 - 0.0
29/10:15pm 8.9 3.2 2.6 64 2.7 WSW 22 30 12 16 1021.1 - 0.0
29/10:00pm 9.2 4.0 2.7 64 2.8 SW 19 24 10 13 1021.1 - 0.0
29/09:45pm 9.4 4.3 2.8 63 2.8 SW 19 24 10 13 1020.9 - 0.0
29/09:30pm 9.6 4.4 2.7 62 3.0 SW 19 24 10 13 1020.8 - 0.0
29/09:15pm 9.9 4.2 2.8 61 3.1 SW 22 28 12 15 1020.7 - 0.0
29/09:00pm 9.9 4.2 3.1 62 3.0 SW 22 28 12 15 1020.7 - 0.0
29/08:45pm 9.5 5.4 2.3 61 3.1 SW 13 20 7 11 1020.7 - 0.0
29/08:30pm 10.4 4.7 2.7 59 3.3 SW 22 28 12 15 1020.3 - 0.0
29/08:15pm 10.4 5.2 2.5 58 3.4 SW 19 22 10 12 1020.3 - 0.0
29/08:00pm 10.7 5.5 2.3 56 3.6 SW 19 24 10 13 1020.1 - 0.0
29/07:45pm 11.1 4.9 2.4 55 3.8 SW 24 28 13 15 1019.8 - 0.0
29/07:30pm 11.1 5.6 2.1 54 3.9 SW 20 24 11 13 1019.5 - 0.0
29/07:15pm 11.4 6.1 1.9 52 4.1 SW 19 26 10 14 1019.5 - 0.0
29/07:00pm 11.8 6.5 1.8 50 4.3 SW 19 22 10 12 1019.3 - 0.0
29/06:45pm 12.0 7.1 1.7 49 4.4 SW 17 22 9 12 1019.0 - 0.0
29/06:30pm 12.3 6.9 1.5 47 4.6 SW 19 22 10 12 1018.8 - 0.0
29/06:15pm 12.8 7.4 1.4 46 4.9 SW 19 22 10 12 1018.6 - 0.0
29/06:00pm 13.2 7.6 1.4 44 5.1 SW 20 22 11 12 1018.4 - 0.0
29/05:45pm 13.4 7.9 1.6 44 5.1 SW 20 24 11 13 1018.3 - 0.0
29/05:30pm 13.5 8.6 1.8 45 5.1 SW 17 20 9 11 1018.1 - 0.0

Latest Capital City Observations: Canberra | Sydney | Melbourne | Brisbane | Adelaide | Perth | Hobart | Darwin

Other Formats:

Comma delimited format used in spreadsheet applications
http://www.bom.gov.au/fwo/IDN60901/IDN60901.95757.axf

JavaScript Object Notation format (JSON) in row-major order
http://www.bom.gov.au/fwo/IDN60901/IDN60901.95757.json